Coachella, CA (92236)

4:32 PM PST on December 04, 2016 (GMT -0800)
APRSWXNET | | Change Station

Elev 110 ft 33.67 °N, 116.15 °W | Updated 27 minutes ago

Clear
Clear
71 °F
Feels Like 74 °F
N
1
Wind Variable Wind from SSE
Gusts 3.0 mph

Today
High -- | Low -- °F
--% Chance of Precip.
Yesterday
High -- | Low -- °F
Precip. -- in
Pressure 29.95 in
Visibility 10.0 miles
Clouds Clear
Heat Index 74 °F
Dew Point 25 °F
Humidity 18%
Rainfall in
Snow Depth Not available.
6:34 AM 4:36 PM
Waxing Crescent, 26% visible
METAR KTRM 042352Z AUTO 15003KT 10SM CLR 22/M08 A2994 RMK AO2 SLP140 T02221078 10239 20183 56019 TSNO
Pressure 29.95 in
Visibility 10.0 miles
Clouds Clear
Heat Index 74 °F
Dew Point 25 °F
Humidity 18%
Rainfall in
Snow Depth Not available.
6:34 AM 4:36 PM
Waxing Crescent, 26% visible
METAR KTRM 042352Z AUTO 15003KT 10SM CLR 22/M08 A2994 RMK AO2 SLP140 T02221078 10239 20183 56019 TSNO

10-Day Weather Forecast

Almanac

Astronomy

Dec. 04, 2016 Rise Set
Actual Time
Civil Twilight
Nautical Twilight
Astronomical Twilight
Moon
Length of Visible Light
Length of Day
Tomorrow will be .
, % of the Moon is Illuminated

Today's Extremes

State Highs State Lows

Community

WunderPhotos

Upload Photos

1,955,725 photos uploaded!

WunderBlog® & News

Nearby

Air Quality

  Air Quality AQ Index Pollutant
Not available.

Snow Depth

Station Depth Elevation

Earthquake Activity

City Distance Mag. Time & Date
Minimum magnitude displayed is 2.5.

Coastal Water Temperatures

Place Temperature

Stations

Nearby Weather Stations

Station Location Temp. Windchill Dew Point Humidity Wind Precip. Elev Updated Type
                   

Watches & Warnings

There are currently no watches in effect.